Rockdale, Texas
Current Conditions -  °F | °C
As of 7:15 PM on Tuesday 21 Oct 2014 (Local Time) from KT35 Reporting Station
Clear Clear  
Wind Chill: 73°   Ceiling: Unl
Heat Index: 73°   Visibility: 10mi
Dew Point: 58°   Wind: 0mph
Humidity: 61%   Direction: NA
Pressure: 30.02"   Gusts: NA
Location:  30.66°N, 97°W
Report Text: KT35 220015Z AUTO 00000KT 10SM CLR 23/15 A3002 RMK AO2 T02260147
Loading
Personal Weather Stations






























Interactive Weather Map New forecast layout! Learn more

10-Day Weather Forecast

Advertisements
Track Severe Weather on mobile